createdAt,value
2018-07-01T00:00:36.206Z,0
2018-07-01T00:01:37.629Z,0
2018-07-01T00:02:39.020Z,0
2018-07-01T00:03:40.464Z,0
2018-07-01T00:04:41.807Z,0
2018-07-01T00:05:43.202Z,0
2018-07-01T00:06:44.615Z,0
2018-07-01T00:07:46.012Z,0
2018-07-01T00:08:47.406Z,0
2018-07-01T00:09:48.798Z,0
2018-07-01T00:10:50.234Z,0
2018-07-01T00:11:51.591Z,0
2018-07-01T00:12:52.990Z,0
2018-07-01T00:13:54.389Z,0
2018-07-01T00:14:55.782Z,0
2018-07-01T00:15:57.179Z,0
2018-07-01T00:16:58.579Z,0
2018-07-01T00:17:59.966Z,0
2018-07-01T00:19:01.360Z,0
2018-07-01T00:20:02.763Z,0
2018-07-01T00:21:04.165Z,0
2018-07-01T00:22:05.548Z,0
2018-07-01T00:23:06.942Z,0
2018-07-01T00:24:08.330Z,0
2018-07-01T00:25:09.729Z,0
2018-07-01T00:26:11.121Z,0
2018-07-01T00:27:12.516Z,0
2018-07-01T00:28:13.913Z,0
2018-07-01T00:29:15.308Z,0
2018-07-01T00:30:16.697Z,0
2018-07-01T00:31:18.091Z,0
2018-07-01T00:32:19.498Z,0
2018-07-01T00:33:20.897Z,0
2018-07-01T00:34:22.289Z,0
2018-07-01T00:35:23.685Z,0
2018-07-01T00:36:25.086Z,0
2018-07-01T00:37:26.479Z,0
2018-07-01T00:38:27.875Z,0
2018-07-01T00:39:29.276Z,0
2018-07-01T00:40:30.671Z,0
2018-07-01T00:41:32.068Z,0
2018-07-01T00:42:33.457Z,0
2018-07-01T00:43:34.853Z,0
2018-07-01T00:44:36.246Z,0
2018-07-01T00:45:37.641Z,0
2018-07-01T00:46:39.035Z,0
2018-07-01T00:47:40.427Z,0
2018-07-01T00:48:41.824Z,0
2018-07-01T00:49:43.215Z,0
2018-07-01T00:50:44.611Z,0
2018-07-01T00:51:46.005Z,0
2018-07-01T00:52:47.395Z,0
2018-07-01T00:53:48.791Z,0
2018-07-01T00:54:50.184Z,0
2018-07-01T00:55:51.590Z,0
2018-07-01T00:56:52.986Z,0
2018-07-01T00:57:54.383Z,0
2018-07-01T00:58:55.778Z,0
2018-07-01T00:59:57.170Z,0
2018-07-01T01:00:58.561Z,0
2018-07-01T01:01:59.956Z,0
2018-07-01T01:03:01.350Z,0
2018-07-01T01:04:02.747Z,0
2018-07-01T01:05:04.157Z,0
2018-07-01T01:06:05.553Z,0
2018-07-01T01:07:06.943Z,0
2018-07-01T01:08:08.336Z,0
2018-07-01T01:09:09.734Z,0
2018-07-01T01:10:11.128Z,0
2018-07-01T01:11:12.522Z,0
2018-07-01T01:12:13.920Z,0
2018-07-01T01:13:15.315Z,0
2018-07-01T01:14:16.708Z,0
2018-07-01T01:15:18.102Z,0
2018-07-01T01:16:19.495Z,0
2018-07-01T01:17:20.899Z,0
2018-07-01T01:18:22.342Z,0
2018-07-01T01:19:23.736Z,0
2018-07-01T01:20:25.128Z,0
2018-07-01T01:21:26.521Z,0
2018-07-01T01:22:27.914Z,0
2018-07-01T01:23:29.309Z,0
2018-07-01T01:24:30.705Z,0
2018-07-01T01:25:32.100Z,0
2018-07-01T01:26:33.494Z,0
2018-07-01T01:27:34.888Z,0
2018-07-01T01:28:36.281Z,0
2018-07-01T01:29:37.674Z,0
2018-07-01T01:30:39.080Z,0
2018-07-01T01:31:40.475Z,0
2018-07-01T01:32:41.869Z,0
2018-07-01T01:33:43.264Z,0
2018-07-01T01:34:44.656Z,0
2018-07-01T01:35:46.050Z,0
2018-07-01T01:36:47.446Z,0
2018-07-01T01:37:48.839Z,0
2018-07-01T01:38:50.243Z,0
2018-07-01T01:39:51.632Z,0
2018-07-01T01:40:53.028Z,0
2018-07-01T01:41:54.423Z,0
2018-07-01T01:42:55.815Z,0
2018-07-01T01:43:57.213Z,0
2018-07-01T01:44:58.610Z,0
2018-07-01T01:46:00.006Z,0
2018-07-01T01:47:01.403Z,0
2018-07-01T01:48:02.798Z,0
2018-07-01T01:49:04.185Z,0
2018-07-01T01:50:05.577Z,0
2018-07-01T01:51:06.970Z,0
2018-07-01T01:52:08.362Z,0
2018-07-01T01:53:09.755Z,0
2018-07-01T01:54:11.154Z,0
2018-07-01T01:55:12.548Z,0
2018-07-01T01:56:13.951Z,0
2018-07-01T01:57:15.343Z,0
2018-07-01T01:58:16.742Z,0
2018-07-01T01:59:18.136Z,0
2018-07-01T02:00:19.527Z,0
2018-07-01T02:01:20.918Z,0
2018-07-01T02:02:22.315Z,0
2018-07-01T02:03:23.804Z,0
2018-07-01T02:04:25.220Z,0
2018-07-01T02:05:26.612Z,0
2018-07-01T02:06:28.058Z,0
2018-07-01T02:07:29.396Z,0
2018-07-01T02:08:30.800Z,0
2018-07-01T02:09:32.200Z,0
2018-07-01T02:10:33.590Z,0
2018-07-01T02:11:34.983Z,0
2018-07-01T02:12:36.377Z,0
2018-07-01T02:13:37.775Z,0
2018-07-01T02:14:39.195Z,0
2018-07-01T02:15:40.550Z,0
2018-07-01T02:16:41.950Z,0
2018-07-01T02:17:43.353Z,0
2018-07-01T02:18:44.746Z,0
2018-07-01T02:19:46.140Z,0
2018-07-01T02:20:47.537Z,0
2018-07-01T02:21:48.940Z,0
2018-07-01T02:22:50.335Z,0
2018-07-01T02:23:51.725Z,0
2018-07-01T02:24:53.116Z,0
2018-07-01T02:25:54.511Z,0
2018-07-01T02:26:55.903Z,0
2018-07-01T02:27:57.296Z,0
2018-07-01T02:28:58.689Z,0
2018-07-01T02:30:00.086Z,0
2018-07-01T02:31:01.475Z,0
2018-07-01T02:32:02.865Z,0
2018-07-01T02:33:04.259Z,0
2018-07-01T02:34:05.654Z,0
2018-07-01T02:35:07.048Z,0
2018-07-01T02:36:08.446Z,0
2018-07-01T02:37:09.838Z,0
2018-07-01T02:38:11.247Z,0
2018-07-01T02:39:12.644Z,0
2018-07-01T02:40:14.031Z,0
2018-07-01T02:41:15.432Z,0
2018-07-01T02:42:16.825Z,0
2018-07-01T02:43:18.221Z,0
2018-07-01T02:44:19.611Z,0
2018-07-01T02:45:21.006Z,0
2018-07-01T02:46:22.398Z,0
2018-07-01T02:47:23.790Z,0
2018-07-01T02:48:25.182Z,0
2018-07-01T02:49:26.600Z,4
2018-07-01T02:50:28.027Z,4
2018-07-01T02:51:29.418Z,0
2018-07-01T02:52:30.814Z,0
2018-07-01T02:53:32.209Z,0
2018-07-01T02:54:33.602Z,4
2018-07-01T02:55:34.998Z,4
2018-07-01T02:56:36.392Z,0
2018-07-01T02:57:37.787Z,4
2018-07-01T02:58:39.182Z,4
2018-07-01T02:59:40.576Z,4
2018-07-01T03:00:41.972Z,4
2018-07-01T03:01:43.362Z,4
2018-07-01T03:02:44.744Z,8
2018-07-01T03:03:46.147Z,4
2018-07-01T03:04:47.539Z,8
2018-07-01T03:05:48.951Z,8
2018-07-01T03:06:50.341Z,8
2018-07-01T03:07:51.736Z,12
2018-07-01T03:08:53.133Z,12
2018-07-01T03:09:54.530Z,16
2018-07-01T03:10:55.921Z,16
2018-07-01T03:11:57.313Z,20
2018-07-01T03:12:58.716Z,24
2018-07-01T03:14:00.111Z,20
2018-07-01T03:15:01.509Z,24
2018-07-01T03:16:02.905Z,28
2018-07-01T03:17:04.291Z,32
2018-07-01T03:18:05.686Z,32
2018-07-01T03:19:07.079Z,36
2018-07-01T03:20:08.477Z,40
2018-07-01T03:21:09.881Z,44
2018-07-01T03:22:11.277Z,48
2018-07-01T03:23:12.677Z,52
2018-07-01T03:24:14.063Z,56
2018-07-01T03:25:15.458Z,60
2018-07-01T03:26:16.902Z,64
2018-07-01T03:27:18.249Z,72
2018-07-01T03:28:19.642Z,76
2018-07-01T03:29:21.049Z,80
2018-07-01T03:30:22.450Z,84
2018-07-01T03:31:23.832Z,92
2018-07-01T03:32:25.238Z,100
2018-07-01T03:33:26.639Z,100
2018-07-01T03:34:28.034Z,108
2018-07-01T03:35:29.526Z,116
2018-07-01T03:36:30.929Z,124
2018-07-01T03:37:32.322Z,132
2018-07-01T03:38:33.721Z,136
2018-07-01T03:39:35.112Z,140
2018-07-01T03:40:36.509Z,152
2018-07-01T03:41:37.921Z,160
2018-07-01T03:42:39.313Z,164
2018-07-01T03:43:40.708Z,172
2018-07-01T03:44:42.098Z,180
2018-07-01T03:45:43.492Z,188
2018-07-01T03:46:44.887Z,192
2018-07-01T03:47:46.285Z,200
2018-07-01T03:48:47.684Z,208
2018-07-01T03:49:49.077Z,216
2018-07-01T03:50:50.472Z,224
2018-07-01T03:51:51.864Z,232
2018-07-01T03:52:53.259Z,236
2018-07-01T03:53:54.664Z,244
2018-07-01T03:54:56.063Z,252
2018-07-01T03:55:57.462Z,260
2018-07-01T03:56:58.856Z,264
2018-07-01T03:58:00.253Z,272
2018-07-01T03:59:01.647Z,280
2018-07-01T04:00:03.046Z,288
2018-07-01T04:01:04.441Z,292
2018-07-01T04:02:05.946Z,300
2018-07-01T04:03:07.344Z,308
2018-07-01T04:04:08.743Z,312
2018-07-01T04:05:10.145Z,320
2018-07-01T04:06:11.535Z,324
2018-07-01T04:07:12.939Z,332
2018-07-01T04:08:14.334Z,336
2018-07-01T04:09:15.732Z,344
2018-07-01T04:10:17.146Z,352
2018-07-01T04:11:18.549Z,356
2018-07-01T04:12:19.951Z,360
2018-07-01T04:13:21.341Z,368
2018-07-01T04:14:22.739Z,372
2018-07-01T04:15:24.137Z,384
2018-07-01T04:16:25.533Z,388
2018-07-01T04:17:26.945Z,396
2018-07-01T04:18:28.338Z,408
2018-07-01T04:19:29.735Z,412
2018-07-01T04:20:31.130Z,420
2018-07-01T04:21:32.629Z,424
2018-07-01T04:22:34.032Z,432
2018-07-01T04:23:35.428Z,436
2018-07-01T04:24:36.827Z,444
2018-07-01T04:25:38.228Z,448
2018-07-01T04:26:39.619Z,452
2018-07-01T04:27:41.018Z,456
2018-07-01T04:28:42.435Z,468
2018-07-01T04:29:43.814Z,472
2018-07-01T04:30:45.209Z,472
2018-07-01T04:31:46.612Z,480
2018-07-01T04:32:48.008Z,484
2018-07-01T04:33:49.409Z,492
2018-07-01T04:34:50.805Z,492
2018-07-01T04:35:52.208Z,500
2018-07-01T04:36:53.602Z,500
2018-07-01T04:37:54.997Z,504
2018-07-01T04:38:56.403Z,512
2018-07-01T04:39:57.836Z,516
2018-07-01T04:40:59.325Z,520
2018-07-01T04:42:00.826Z,524
2018-07-01T04:43:02.270Z,528
2018-07-01T04:44:03.666Z,532
2018-07-01T04:45:05.063Z,536
2018-07-01T04:46:06.459Z,540
2018-07-01T04:47:07.864Z,544
2018-07-01T04:48:09.254Z,548
2018-07-01T04:49:10.672Z,552
2018-07-01T04:50:12.045Z,556
2018-07-01T04:51:13.443Z,560
2018-07-01T04:52:14.839Z,560
2018-07-01T04:53:16.234Z,568
2018-07-01T04:54:17.631Z,572
2018-07-01T04:55:19.067Z,576
2018-07-01T04:56:20.424Z,580
2018-07-01T04:57:21.820Z,580
2018-07-01T04:58:23.217Z,584
2018-07-01T04:59:24.615Z,588
2018-07-01T05:00:26.012Z,592
2018-07-01T05:01:27.405Z,596
2018-07-01T05:02:28.823Z,600
2018-07-01T05:03:30.200Z,604
2018-07-01T05:04:31.616Z,608
2018-07-01T05:05:33.013Z,608
2018-07-01T05:06:34.408Z,616
2018-07-01T05:07:35.865Z,620
2018-07-01T05:08:37.295Z,624
2018-07-01T05:09:38.692Z,624
2018-07-01T05:10:40.084Z,632
2018-07-01T05:11:41.481Z,632
2018-07-01T05:12:42.881Z,636
2018-07-01T05:13:44.281Z,640
2018-07-01T05:14:45.683Z,648
2018-07-01T05:15:47.090Z,648
2018-07-01T05:16:48.532Z,648
2018-07-01T05:17:49.937Z,652
2018-07-01T05:18:51.329Z,656
2018-07-01T05:19:52.726Z,660
2018-07-01T05:20:54.130Z,660
2018-07-01T05:21:55.526Z,668
2018-07-01T05:22:56.926Z,668
2018-07-01T05:23:58.328Z,676
2018-07-01T05:24:59.730Z,676
2018-07-01T05:26:01.125Z,680
2018-07-01T05:27:02.522Z,684
2018-07-01T05:28:03.920Z,684
2018-07-01T05:29:05.315Z,688
2018-07-01T05:30:06.716Z,696
2018-07-01T05:31:08.111Z,700
2018-07-01T05:32:09.509Z,704
2018-07-01T05:33:10.906Z,704
2018-07-01T05:34:12.304Z,712
2018-07-01T05:35:13.703Z,716
2018-07-01T05:36:15.115Z,720
2018-07-01T05:37:16.514Z,724
2018-07-01T05:38:17.914Z,728
2018-07-01T05:39:19.306Z,732
2018-07-01T05:40:20.699Z,736
2018-07-01T05:41:22.094Z,744
2018-07-01T05:42:23.502Z,748
2018-07-01T05:43:24.910Z,752
2018-07-01T05:44:26.297Z,756
2018-07-01T05:45:27.692Z,764
2018-07-01T05:46:29.089Z,768
2018-07-01T05:47:30.490Z,772
2018-07-01T05:48:31.889Z,776
2018-07-01T05:49:33.287Z,780
2018-07-01T05:50:34.676Z,784
2018-07-01T05:51:36.082Z,792
2018-07-01T05:52:37.479Z,796
2018-07-01T05:53:38.902Z,804
2018-07-01T05:54:40.298Z,804
2018-07-01T05:55:41.698Z,812
2018-07-01T05:56:43.094Z,820
2018-07-01T05:57:44.505Z,824
2018-07-01T05:58:45.893Z,832
2018-07-01T05:59:47.287Z,840
2018-07-01T06:00:48.681Z,844
2018-07-01T06:01:50.078Z,852
2018-07-01T06:02:51.475Z,860
2018-07-01T06:03:52.870Z,864
2018-07-01T06:04:54.266Z,872
2018-07-01T06:05:55.667Z,884
2018-07-01T06:06:57.065Z,888
2018-07-01T06:07:58.462Z,896
2018-07-01T06:08:59.863Z,904
2018-07-01T06:10:01.257Z,912
2018-07-01T06:11:02.666Z,916
2018-07-01T06:12:04.060Z,928
2018-07-01T06:13:05.460Z,936
2018-07-01T06:14:06.880Z,944
2018-07-01T06:15:08.258Z,956
2018-07-01T06:16:09.646Z,964
2018-07-01T06:17:11.043Z,964
2018-07-01T06:18:12.438Z,972
2018-07-01T06:19:13.838Z,984
2018-07-01T06:20:15.241Z,996
2018-07-01T06:21:16.638Z,1004
2018-07-01T06:22:18.032Z,1012
2018-07-01T06:23:19.432Z,1012
2018-07-01T06:24:20.839Z,1036
2018-07-01T06:25:22.240Z,1048
2018-07-01T06:26:23.633Z,1060
2018-07-01T06:27:25.033Z,1072
2018-07-01T06:28:26.429Z,1084
2018-07-01T06:29:27.822Z,1092
2018-07-01T06:30:29.193Z,1108
2018-07-01T06:31:30.595Z,1124
2018-07-01T06:32:31.999Z,1132
2018-07-01T06:33:33.397Z,1148
2018-07-01T06:34:34.796Z,1164
2018-07-01T06:35:36.195Z,1176
2018-07-01T06:36:37.591Z,1196
2018-07-01T06:37:38.992Z,1212
2018-07-01T06:38:40.385Z,1224
2018-07-01T06:39:41.860Z,1240
2018-07-01T06:40:43.263Z,1252
2018-07-01T06:41:44.664Z,1280
2018-07-01T06:42:46.080Z,1292
2018-07-01T06:43:47.476Z,1312
2018-07-01T06:44:48.880Z,1324
2018-07-01T06:45:50.282Z,1336
2018-07-01T06:46:51.679Z,1364
2018-07-01T06:47:53.077Z,1372
2018-07-01T06:48:54.476Z,1392
2018-07-01T06:49:55.870Z,1404
2018-07-01T06:50:57.269Z,1428
2018-07-01T06:51:58.665Z,1444
2018-07-01T06:53:00.086Z,1464
2018-07-01T06:54:01.489Z,1480
2018-07-01T06:55:02.883Z,1500
2018-07-01T06:56:04.287Z,1520
2018-07-01T06:57:05.685Z,1544
2018-07-01T06:58:07.079Z,1564
2018-07-01T06:59:08.482Z,1584
2018-07-01T07:00:09.877Z,1600
2018-07-01T07:01:11.275Z,1628
2018-07-01T07:02:12.674Z,1648
2018-07-01T07:03:14.073Z,1672
2018-07-01T07:04:15.468Z,1704
2018-07-01T07:05:16.864Z,1732
2018-07-01T07:06:18.261Z,1756
2018-07-01T07:07:19.661Z,1776
2018-07-01T07:08:21.063Z,1796
2018-07-01T07:09:22.460Z,1828
2018-07-01T07:10:23.860Z,1852
2018-07-01T07:11:25.267Z,1880
2018-07-01T07:12:26.667Z,1912
2018-07-01T07:13:28.134Z,1936
2018-07-01T07:14:29.545Z,1964
2018-07-01T07:15:30.959Z,1984
2018-07-01T07:16:32.362Z,2004
2018-07-01T07:17:33.764Z,2032
2018-07-01T07:18:35.163Z,2060
2018-07-01T07:19:36.561Z,2080
2018-07-01T07:20:37.957Z,2088
2018-07-01T07:21:39.359Z,2112
2018-07-01T07:22:40.779Z,2136
2018-07-01T07:23:42.181Z,2160
2018-07-01T07:24:43.589Z,2160
2018-07-01T07:25:45.013Z,2196
2018-07-01T07:26:46.450Z,2228
2018-07-01T07:27:47.850Z,2248
2018-07-01T07:28:49.250Z,2256
2018-07-01T07:29:50.646Z,2284
2018-07-01T07:30:52.044Z,2300
2018-07-01T07:31:53.484Z,2324
2018-07-01T07:32:54.853Z,2336
2018-07-01T07:33:56.250Z,2360
2018-07-01T07:34:57.657Z,2368
2018-07-01T07:35:59.062Z,2388
2018-07-01T07:37:00.463Z,2400
2018-07-01T07:38:01.865Z,2416
2018-07-01T07:39:03.301Z,2424
2018-07-01T07:40:04.706Z,2444
2018-07-01T07:41:06.106Z,2452
2018-07-01T07:42:07.506Z,2456
2018-07-01T07:43:08.903Z,2468
2018-07-01T07:44:10.301Z,2476
2018-07-01T07:45:11.768Z,2500
2018-07-01T07:46:13.114Z,2516
2018-07-01T07:47:14.512Z,2528
2018-07-01T07:48:15.917Z,2548
2018-07-01T07:49:17.325Z,2544
2018-07-01T07:50:18.726Z,2580
2018-07-01T07:51:20.127Z,2580
2018-07-01T07:52:21.543Z,2592
2018-07-01T07:53:22.936Z,2620
2018-07-01T07:54:24.339Z,2616
2018-07-01T07:55:25.739Z,2640
2018-07-01T07:56:27.147Z,2668
2018-07-01T07:57:28.549Z,2692
2018-07-01T07:58:29.959Z,2692
2018-07-01T07:59:31.356Z,2708
2018-07-01T08:00:32.758Z,2712
2018-07-01T08:01:34.152Z,2752
2018-07-01T08:02:35.556Z,2760
2018-07-01T08:03:36.951Z,2768
2018-07-01T08:04:38.358Z,2804
2018-07-01T08:05:39.759Z,2812
2018-07-01T08:06:41.163Z,2824
2018-07-01T08:07:42.610Z,2840
2018-07-01T08:08:43.968Z,2852
2018-07-01T08:09:45.362Z,2876
2018-07-01T08:10:46.855Z,2884
2018-07-01T08:11:48.244Z,2900
2018-07-01T08:12:49.695Z,2916
2018-07-01T08:13:51.049Z,2944
2018-07-01T08:14:52.454Z,2956
2018-07-01T08:15:53.863Z,2972
2018-07-01T08:16:55.262Z,3012
2018-07-01T08:17:56.693Z,3008
2018-07-01T08:18:58.095Z,3036
2018-07-01T08:19:59.498Z,3040
2018-07-01T08:21:00.901Z,3072
2018-07-01T08:22:02.353Z,3104
2018-07-01T08:23:03.701Z,3112
2018-07-01T08:24:05.101Z,3132
2018-07-01T08:25:06.505Z,3152
2018-07-01T08:26:07.902Z,3164
2018-07-01T08:27:09.470Z,3188
2018-07-01T08:28:10.870Z,3196
2018-07-01T08:29:12.277Z,3228
2018-07-01T08:30:13.673Z,3252
2018-07-01T08:31:15.073Z,3260
2018-07-01T08:32:16.474Z,3300
2018-07-01T08:33:17.874Z,3324
2018-07-01T08:34:19.280Z,3360
2018-07-01T08:35:20.681Z,3360
2018-07-01T08:36:22.089Z,3392
2018-07-01T08:37:23.491Z,3400
2018-07-01T08:38:24.894Z,3436
2018-07-01T08:39:26.298Z,3460
2018-07-01T08:40:27.709Z,3488
2018-07-01T08:41:29.761Z,3484
2018-07-01T08:42:31.167Z,3532
2018-07-01T08:43:32.705Z,3564
2018-07-01T08:44:34.107Z,3576
2018-07-01T08:45:35.526Z,3604
2018-07-01T08:46:36.932Z,3636
2018-07-01T08:47:38.332Z,3644
2018-07-01T08:48:39.742Z,3668
2018-07-01T08:49:41.148Z,3704
2018-07-01T08:50:42.554Z,3728
2018-07-01T08:51:43.964Z,3752
2018-07-01T08:52:45.456Z,3768
2018-07-01T08:53:46.771Z,3796
2018-07-01T08:54:48.197Z,3836
2018-07-01T08:55:49.889Z,3844
2018-07-01T08:56:51.291Z,3856
2018-07-01T08:57:52.730Z,3932
2018-07-01T08:58:54.128Z,3932
2018-07-01T08:59:55.530Z,3956
2018-07-01T09:00:56.934Z,3976
2018-07-01T09:01:58.338Z,4020
2018-07-01T09:02:59.742Z,4044
2018-07-01T09:04:01.151Z,4068
2018-07-01T09:05:02.584Z,4104
2018-07-01T09:06:03.972Z,4124
2018-07-01T09:07:05.375Z,4164
2018-07-01T09:08:06.778Z,4184
2018-07-01T09:09:08.177Z,4240
2018-07-01T09:10:09.598Z,4248
2018-07-01T09:11:11.002Z,4300
2018-07-01T09:12:12.418Z,4316
2018-07-01T09:13:13.826Z,4392
2018-07-01T09:14:15.226Z,4384
2018-07-01T09:15:16.626Z,4400
2018-07-01T09:16:18.118Z,4456
2018-07-01T09:17:19.540Z,4488
2018-07-01T09:18:20.925Z,4528
2018-07-01T09:19:22.320Z,4544
2018-07-01T09:20:23.721Z,4592
2018-07-01T09:21:25.129Z,4628
2018-07-01T09:22:26.531Z,4680
2018-07-01T09:23:27.990Z,4704
2018-07-01T09:24:29.344Z,4736
2018-07-01T09:25:30.752Z,4780
2018-07-01T09:26:32.159Z,4816
2018-07-01T09:27:33.584Z,4856
2018-07-01T09:28:35.068Z,4896
2018-07-01T09:29:36.470Z,4936
2018-07-01T09:30:37.873Z,4976
2018-07-01T09:31:39.278Z,5024
2018-07-01T09:32:40.691Z,5052
2018-07-01T09:33:42.182Z,5104
2018-07-01T09:34:43.650Z,5148
2018-07-01T09:35:44.984Z,5204
2018-07-01T09:36:46.397Z,5236
2018-07-01T09:37:47.806Z,5300
2018-07-01T09:38:49.212Z,5332
2018-07-01T09:39:50.698Z,5364
2018-07-01T09:40:52.112Z,5428
2018-07-01T09:41:53.514Z,5476
2018-07-01T09:42:55.008Z,5536
2018-07-01T09:43:56.417Z,5588
2018-07-01T09:44:57.822Z,5640
2018-07-01T09:45:59.229Z,5680
2018-07-01T09:47:00.803Z,5720
2018-07-01T09:48:02.207Z,5784
2018-07-01T09:49:03.638Z,5844
2018-07-01T09:50:05.095Z,5896
2018-07-01T09:51:06.501Z,5956
2018-07-01T09:52:07.903Z,6000
2018-07-01T09:53:09.319Z,6064
2018-07-01T09:54:10.742Z,6104
2018-07-01T09:55:12.154Z,6172
2018-07-01T09:56:13.589Z,6228
2018-07-01T09:57:14.994Z,6296
2018-07-01T09:58:16.395Z,6356
2018-07-01T09:59:17.806Z,6408
2018-07-01T10:00:19.219Z,6468
2018-07-01T10:01:20.625Z,6548
2018-07-01T10:02:22.036Z,6612
2018-07-01T10:03:23.449Z,6668
2018-07-01T10:04:24.849Z,6736
2018-07-01T10:05:26.258Z,6816
2018-07-01T10:06:27.717Z,6884
2018-07-01T10:07:29.128Z,6936
2018-07-01T10:08:30.528Z,6992
2018-07-01T10:09:31.942Z,7124
2018-07-01T10:10:33.409Z,7172
2018-07-01T10:11:34.826Z,7244
2018-07-01T10:12:36.236Z,7312
2018-07-01T10:13:37.642Z,7404
2018-07-01T10:14:39.047Z,7480
2018-07-01T10:15:40.450Z,7552
2018-07-01T10:16:41.856Z,7664
2018-07-01T10:17:43.261Z,7744
2018-07-01T10:18:44.666Z,7812
2018-07-01T10:19:46.070Z,7892
2018-07-01T10:20:47.475Z,8004
2018-07-01T10:21:48.882Z,8084
2018-07-01T10:22:50.287Z,8164
2018-07-01T10:23:51.736Z,8280
2018-07-01T10:24:53.238Z,8360
2018-07-01T10:25:54.644Z,8492
2018-07-01T10:26:56.047Z,8584
2018-07-01T10:27:57.472Z,8660
2018-07-01T10:28:58.874Z,8788
2018-07-01T10:30:00.286Z,8876
2018-07-01T10:31:01.691Z,8996
2018-07-01T10:32:03.130Z,9120
2018-07-01T10:33:04.787Z,9228
2018-07-01T10:34:06.186Z,9328
2018-07-01T10:35:07.587Z,9428
2018-07-01T10:36:08.995Z,9552
2018-07-01T10:37:10.410Z,9644
2018-07-01T10:38:11.820Z,9804
2018-07-01T10:39:13.223Z,9928
2018-07-01T10:40:14.655Z,10056
2018-07-01T10:41:16.033Z,10204
2018-07-01T10:42:17.441Z,10372
2018-07-01T10:43:18.848Z,10476
2018-07-01T10:44:20.252Z,10608
2018-07-01T10:45:21.688Z,10780
2018-07-01T10:46:23.089Z,10936
2018-07-01T10:47:24.495Z,11084
2018-07-01T10:48:25.898Z,11248
2018-07-01T10:49:27.305Z,11408
2018-07-01T10:50:28.709Z,11636
2018-07-01T10:51:31.059Z,11784
2018-07-01T10:52:32.427Z,11968
2018-07-01T10:53:33.813Z,12168
2018-07-01T10:54:35.218Z,12356
2018-07-01T10:55:36.624Z,12576
2018-07-01T10:56:38.031Z,12792
2018-07-01T10:57:39.452Z,13032
2018-07-01T10:58:40.848Z,13268
2018-07-01T10:59:42.258Z,13504
2018-07-01T11:00:43.872Z,13796
2018-07-01T11:01:45.289Z,14088
2018-07-01T11:02:46.786Z,14376
2018-07-01T11:03:48.190Z,14708
2018-07-01T11:04:49.600Z,15016
2018-07-01T11:05:51.080Z,15368
2018-07-01T11:06:52.470Z,15768
2018-07-01T11:07:53.875Z,16236
2018-07-01T11:08:55.276Z,16832
2018-07-01T11:09:56.684Z,17344
2018-07-01T11:10:58.090Z,17920
2018-07-01T11:11:59.498Z,18592
2018-07-01T11:13:00.904Z,19264
2018-07-01T11:14:02.473Z,20064
2018-07-01T11:15:03.882Z,20896
2018-07-01T11:16:05.360Z,21760
2018-07-01T11:17:06.765Z,22624
2018-07-01T11:18:08.178Z,23520
2018-07-01T11:19:09.580Z,24384
2018-07-01T11:20:11.046Z,25216
2018-07-01T11:21:12.398Z,25920
2018-07-01T11:22:13.803Z,26528
2018-07-01T11:23:15.208Z,26976
2018-07-01T11:24:17.063Z,27200
2018-07-01T11:25:18.459Z,27424
2018-07-01T11:26:19.940Z,27552
2018-07-01T11:27:21.403Z,27616
2018-07-01T11:28:22.760Z,27648
2018-07-01T11:29:24.165Z,27456
2018-07-01T11:30:25.567Z,27296
2018-07-01T11:31:27.062Z,27200
2018-07-01T11:32:28.468Z,27008
2018-07-01T11:33:29.885Z,26816
2018-07-01T11:34:31.370Z,26656
2018-07-01T11:35:32.775Z,26496
2018-07-01T11:36:34.185Z,26336
2018-07-01T11:37:35.591Z,26208
2018-07-01T11:38:37.245Z,26112
2018-07-01T11:39:38.673Z,26048
2018-07-01T11:40:40.079Z,25856
2018-07-01T11:41:41.485Z,25824
2018-07-01T11:42:42.948Z,25760
2018-07-01T11:43:44.310Z,25760
2018-07-01T11:44:45.719Z,25728
2018-07-01T11:45:47.130Z,25632
2018-07-01T11:46:48.537Z,25728
2018-07-01T11:47:49.967Z,25696
2018-07-01T11:48:51.389Z,25632
2018-07-01T11:49:52.809Z,25728
2018-07-01T11:50:54.216Z,25664
2018-07-01T11:51:55.624Z,25728
2018-07-01T11:52:57.032Z,25728
2018-07-01T11:53:58.446Z,25792
2018-07-01T11:54:59.852Z,25664
2018-07-01T11:56:01.282Z,25568
2018-07-01T11:57:02.706Z,25568
2018-07-01T11:58:04.121Z,25504
2018-07-01T11:59:05.525Z,25568
2018-07-01T12:00:06.937Z,25440
2018-07-01T12:01:08.357Z,25312
2018-07-01T12:02:09.764Z,25280
2018-07-01T12:03:11.242Z,25216
2018-07-01T12:04:12.655Z,25184
2018-07-01T12:05:16.653Z,25184
2018-07-01T12:06:15.470Z,25056
2018-07-01T12:07:16.877Z,25088
2018-07-01T12:08:18.289Z,24960
2018-07-01T12:09:19.701Z,24928
2018-07-01T12:10:21.121Z,24864
2018-07-01T12:11:22.529Z,24800
2018-07-01T12:12:23.937Z,24704
2018-07-01T12:13:25.346Z,24672
2018-07-01T12:14:26.787Z,24576
2018-07-01T12:15:28.202Z,24448
2018-07-01T12:16:29.623Z,24416
2018-07-01T12:17:31.030Z,24352
2018-07-01T12:18:32.444Z,24288
2018-07-01T12:19:33.852Z,24192
2018-07-01T12:20:35.271Z,24128
2018-07-01T12:21:36.672Z,24000
2018-07-01T12:22:38.140Z,23936
2018-07-01T12:23:39.777Z,23904
2018-07-01T12:24:41.162Z,23808
2018-07-01T12:25:42.575Z,23712
2018-07-01T12:26:43.984Z,23680
2018-07-01T12:27:45.391Z,23648
2018-07-01T12:28:46.824Z,23552
2018-07-01T12:29:48.224Z,23488
2018-07-01T12:30:49.625Z,23424
2018-07-01T12:31:51.040Z,23296
2018-07-01T12:32:52.511Z,23232
2018-07-01T12:33:54.001Z,23168
2018-07-01T12:34:55.409Z,23104
2018-07-01T12:35:56.820Z,23072
2018-07-01T12:36:58.229Z,23072
2018-07-01T12:37:59.634Z,22944
2018-07-01T12:39:01.050Z,22944
2018-07-01T12:40:02.458Z,22848
2018-07-01T12:41:03.866Z,22784
2018-07-01T12:42:05.371Z,22784
2018-07-01T12:43:06.688Z,22752
2018-07-01T12:44:08.100Z,22720
2018-07-01T12:45:09.508Z,22720
2018-07-01T12:46:10.919Z,22688
2018-07-01T12:47:12.330Z,22720
2018-07-01T12:48:13.879Z,22688
2018-07-01T12:49:15.278Z,22688
2018-07-01T12:50:16.685Z,22624
2018-07-01T12:51:18.094Z,22656
2018-07-01T12:52:19.504Z,22688
2018-07-01T12:53:20.915Z,22688
2018-07-01T12:54:22.324Z,22656
2018-07-01T12:55:23.735Z,22688
2018-07-01T12:56:25.502Z,22720
2018-07-01T12:57:26.872Z,22784
2018-07-01T12:58:28.280Z,22848
2018-07-01T12:59:29.692Z,22816
2018-07-01T13:00:31.103Z,22816
2018-07-01T13:01:32.518Z,22912
2018-07-01T13:02:33.978Z,22912
2018-07-01T13:03:35.338Z,22912
2018-07-01T13:04:36.744Z,22944
2018-07-01T13:05:38.164Z,23008
2018-07-01T13:06:39.574Z,22976
2018-07-01T13:07:40.983Z,23040
2018-07-01T13:08:42.444Z,23008
2018-07-01T13:09:43.799Z,23072
2018-07-01T13:10:45.219Z,23104
2018-07-01T13:11:46.628Z,23072
2018-07-01T13:12:48.034Z,23104
2018-07-01T13:13:49.443Z,23168
2018-07-01T13:14:50.853Z,23168
2018-07-01T13:15:52.265Z,23232
2018-07-01T13:16:53.679Z,23232
2018-07-01T13:17:55.098Z,23200
2018-07-01T13:18:56.521Z,23264
2018-07-01T13:19:57.927Z,23264
2018-07-01T13:20:59.335Z,23264
2018-07-01T13:22:00.747Z,23296
2018-07-01T13:23:02.157Z,23264
2018-07-01T13:24:03.564Z,23392
2018-07-01T13:25:05.025Z,23392
2018-07-01T13:26:06.414Z,23456
2018-07-01T13:27:07.826Z,23456
2018-07-01T13:28:09.234Z,23456
2018-07-01T13:29:10.645Z,23424
2018-07-01T13:30:12.089Z,23424
2018-07-01T13:31:13.500Z,23360
2018-07-01T13:32:14.946Z,23456
2018-07-01T13:33:16.349Z,23424
2018-07-01T13:34:17.748Z,23360
2018-07-01T13:35:19.160Z,23296
2018-07-01T13:36:20.574Z,23360
2018-07-01T13:37:21.985Z,23328
2018-07-01T13:38:23.392Z,23296
2018-07-01T13:39:24.808Z,23264
2018-07-01T13:40:26.218Z,23200
2018-07-01T13:41:27.628Z,23136
2018-07-01T13:42:29.039Z,23072
2018-07-01T13:43:30.445Z,23008
2018-07-01T13:44:31.857Z,22944
2018-07-01T13:45:33.264Z,22880
2018-07-01T13:46:34.676Z,22752
2018-07-01T13:47:36.135Z,22720
2018-07-01T13:48:37.541Z,22560
2018-07-01T13:49:38.972Z,22496
2018-07-01T13:50:40.383Z,22400
2018-07-01T13:51:41.794Z,22240
2018-07-01T13:52:43.204Z,22144
2018-07-01T13:53:44.610Z,22080
2018-07-01T13:54:46.020Z,21920
2018-07-01T13:55:47.425Z,21728
2018-07-01T13:56:48.861Z,21728